sensor_id;sensor_type;location;lat;lon;timestamp;pressure;altitude;pressure_sealevel;temperature;humidity
39449;BME280;25151;45.566;9.382;2022-09-09T00:02:21;99345.94;;;28.32;55.79
39449;BME280;25151;45.566;9.382;2022-09-09T00:09:15;99344.13;;;28.29;55.54
39449;BME280;25151;45.566;9.382;2022-09-09T00:12:25;99357.00;;;28.30;55.57
39449;BME280;25151;45.566;9.382;2022-09-09T00:15:42;99344.66;;;28.28;55.58
39449;BME280;25151;45.566;9.382;2022-09-09T00:19:08;99346.94;;;28.29;55.79
39449;BME280;25151;45.566;9.382;2022-09-09T00:22:16;99345.91;;;28.27;55.65
39449;BME280;25151;45.566;9.382;2022-09-09T00:28:40;99341.53;;;28.26;55.62
39449;BME280;25151;45.566;9.382;2022-09-09T00:31:44;99342.56;;;28.28;55.74
39449;BME280;25151;45.566;9.382;2022-09-09T00:34:54;99336.13;;;28.28;55.79
39449;BME280;25151;45.566;9.382;2022-09-09T00:38:02;99323.75;;;28.25;55.79
39449;BME280;25151;45.566;9.382;2022-09-09T00:44:31;99309.31;;;28.23;55.69
39449;BME280;25151;45.566;9.382;2022-09-09T00:47:52;99306.22;;;28.21;55.72
39449;BME280;25151;45.566;9.382;2022-09-09T00:50:56;99306.75;;;28.25;55.50
39449;BME280;25151;45.566;9.382;2022-09-09T00:57:36;99283.03;;;28.17;55.58
39449;BME280;25151;45.566;9.382;2022-09-09T01:00:44;99287.69;;;28.20;55.42
39449;BME280;25151;45.566;9.382;2022-09-09T01:03:53;99284.59;;;28.24;55.49
39449;BME280;25151;45.566;9.382;2022-09-09T01:07:15;99273.25;;;28.24;55.31
39449;BME280;25151;45.566;9.382;2022-09-09T01:10:32;99270.16;;;28.16;55.71
39449;BME280;25151;45.566;9.382;2022-09-09T01:13:39;99272.22;;;28.21;55.75
39449;BME280;25151;45.566;9.382;2022-09-09T01:16:42;99292.06;;;28.21;55.53
39449;BME280;25151;45.566;9.382;2022-09-09T01:29:17;99277.63;;;28.19;55.90
39449;BME280;25151;45.566;9.382;2022-09-09T01:32:41;99278.41;;;28.19;55.78
39449;BME280;25151;45.566;9.382;2022-09-09T01:35:50;99271.69;;;28.17;55.90
39449;BME280;25151;45.566;9.382;2022-09-09T01:38:54;99269.41;;;28.15;55.76
39449;BME280;25151;45.566;9.382;2022-09-09T01:41:56;99261.38;;;28.14;55.56
39449;BME280;25151;45.566;9.382;2022-09-09T01:44:57;99266.03;;;28.17;55.58
39449;BME280;25151;45.566;9.382;2022-09-09T01:47:58;99270.16;;;28.16;55.34
39449;BME280;25151;45.566;9.382;2022-09-09T01:50:59;99277.38;;;28.17;55.55
39449;BME280;25151;45.566;9.382;2022-09-09T01:54:00;99271.69;;;28.17;55.69
39449;BME280;25151;45.566;9.382;2022-09-09T02:00:10;99247.50;;;28.16;55.63
39449;BME280;25151;45.566;9.382;2022-09-09T02:06:36;99268.34;;;28.13;55.38
39449;BME280;25151;45.566;9.382;2022-09-09T02:09:38;99258.81;;;28.16;55.40
39449;BME280;25151;45.566;9.382;2022-09-09T02:12:50;99273.00;;;28.16;55.67
39449;BME280;25151;45.566;9.382;2022-09-09T02:19:20;99288.44;;;28.15;55.50
39449;BME280;25151;45.566;9.382;2022-09-09T02:22:27;99287.66;;;28.14;55.76
39449;BME280;25151;45.566;9.382;2022-09-09T02:25:29;99284.84;;;28.14;55.38
39449;BME280;25151;45.566;9.382;2022-09-09T02:28:32;99281.47;;;28.10;55.69
39449;BME280;25151;45.566;9.382;2022-09-09T02:31:34;99280.97;;;28.12;55.39
39449;BME280;25151;45.566;9.382;2022-09-09T02:34:40;99264.75;;;28.12;55.89
39449;BME280;25151;45.566;9.382;2022-09-09T02:37:44;99275.31;;;28.12;55.71
39449;BME280;25151;45.566;9.382;2022-09-09T02:40:48;99278.16;;;28.12;55.70
39449;BME280;25151;45.566;9.382;2022-09-09T02:43:48;99257.78;;;28.08;55.48
39449;BME280;25151;45.566;9.382;2022-09-09T02:47:10;99258.31;;;28.12;55.70
39449;BME280;25151;45.566;9.382;2022-09-09T02:50:42;99243.63;;;28.13;55.61
39449;BME280;25151;45.566;9.382;2022-09-09T02:54:13;99242.84;;;28.13;55.84
39449;BME280;25151;45.566;9.382;2022-09-09T02:57:21;99254.72;;;28.11;55.45
39449;BME280;25151;45.566;9.382;2022-09-09T03:00:25;99261.16;;;28.12;55.24
39449;BME280;25151;45.566;9.382;2022-09-09T03:03:26;99261.13;;;28.06;55.38
39449;BME280;25151;45.566;9.382;2022-09-09T03:06:27;99249.53;;;28.10;55.40
39449;BME280;25151;45.566;9.382;2022-09-09T03:09:28;99256.50;;;28.09;55.68
39449;BME280;25151;45.566;9.382;2022-09-09T03:12:28;99249.53;;;28.10;55.69
39449;BME280;25151;45.566;9.382;2022-09-09T03:15:29;99242.06;;;28.07;55.79
39449;BME280;25151;45.566;9.382;2022-09-09T03:18:31;99248.00;;;28.09;55.67
39449;BME280;25151;45.566;9.382;2022-09-09T03:21:32;99243.88;;;28.10;55.62
39449;BME280;25151;45.566;9.382;2022-09-09T03:24:33;99228.16;;;28.09;55.67
39449;BME280;25151;45.566;9.382;2022-09-09T03:27:33;99229.47;;;28.08;55.68
39449;BME280;25151;45.566;9.382;2022-09-09T03:30:34;99233.81;;;28.09;55.85
39449;BME280;25151;45.566;9.382;2022-09-09T03:33:35;99235.13;;;28.08;55.51
39449;BME280;25151;45.566;9.382;2022-09-09T03:36:37;99237.97;;;28.08;55.85
39449;BME280;25151;45.566;9.382;2022-09-09T03:39:37;99244.91;;;28.07;55.69
39449;BME280;25151;45.566;9.382;2022-09-09T03:42:39;99245.94;;;28.04;55.75
39449;BME280;25151;45.566;9.382;2022-09-09T03:45:39;99250.84;;;28.09;55.74
39449;BME280;25151;45.566;9.382;2022-09-09T03:48:40;99249.03;;;28.06;55.80
39449;BME280;25151;45.566;9.382;2022-09-09T03:51:41;99240.28;;;28.04;55.88
39449;BME280;25151;45.566;9.382;2022-09-09T03:54:41;99248.50;;;28.07;55.71
39449;BME280;25151;45.566;9.382;2022-09-09T03:57:42;99246.44;;;28.02;55.71
39449;BME280;25151;45.566;9.382;2022-09-09T04:00:43;99262.16;;;28.09;55.74
39449;BME280;25151;45.566;9.382;2022-09-09T04:03:45;99258.56;;;28.08;55.49
39449;BME280;25151;45.566;9.382;2022-09-09T04:06:46;99240.78;;;28.08;55.70
39449;BME280;25151;45.566;9.382;2022-09-09T04:09:48;99224.03;;;28.04;55.46
39449;BME280;25151;45.566;9.382;2022-09-09T04:12:49;99240.78;;;28.08;55.69
39449;BME280;25151;45.566;9.382;2022-09-09T04:15:57;99230.22;;;28.08;55.86
39449;BME280;25151;45.566;9.382;2022-09-09T04:18:58;99229.47;;;28.08;55.79
39449;BME280;25151;45.566;9.382;2022-09-09T04:21:59;99226.34;;;28.06;55.96
39449;BME280;25151;45.566;9.382;2022-09-09T04:25:00;99250.84;;;28.09;55.76
39449;BME280;25151;45.566;9.382;2022-09-09T04:28:01;99258.81;;;28.05;55.54
39449;BME280;25151;45.566;9.382;2022-09-09T04:31:07;99275.03;;;28.10;55.79
39449;BME280;25151;45.566;9.382;2022-09-09T04:34:09;99279.19;;;28.09;56.00
39449;BME280;25151;45.566;9.382;2022-09-09T04:37:09;99267.56;;;28.07;55.74
39449;BME280;25151;45.566;9.382;2022-09-09T04:40:10;99282.78;;;28.09;55.64
39449;BME280;25151;45.566;9.382;2022-09-09T04:43:10;99283.53;;;28.10;55.72
39449;BME280;25151;45.566;9.382;2022-09-09T04:46:13;99292.06;;;28.10;55.93
39449;BME280;25151;45.566;9.382;2022-09-09T04:49:13;99282.00;;;28.09;55.99
39449;BME280;25151;45.566;9.382;2022-09-09T04:52:14;99295.66;;;28.10;55.89
39449;BME280;25151;45.566;9.382;2022-09-09T04:55:17;99295.13;;;28.06;55.71
39449;BME280;25151;45.566;9.382;2022-09-09T04:58:18;99300.81;;;28.06;56.07
39449;BME280;25151;45.566;9.382;2022-09-09T05:01:20;99318.59;;;28.07;55.70
39449;BME280;25151;45.566;9.382;2022-09-09T05:04:22;99312.66;;;28.05;55.69
39449;BME280;25151;45.566;9.382;2022-09-09T05:07:22;99321.41;;;28.07;55.92
39449;BME280;25151;45.566;9.382;2022-09-09T05:10:23;99330.69;;;28.07;55.95
39449;BME280;25151;45.566;9.382;2022-09-09T05:13:23;99327.59;;;28.05;56.08
39449;BME280;25151;45.566;9.382;2022-09-09T05:16:24;99328.38;;;28.06;55.77
39449;BME280;25151;45.566;9.382;2022-09-09T05:19:25;99338.94;;;28.05;56.00
39449;BME280;25151;45.566;9.382;2022-09-09T05:22:26;99331.72;;;28.04;55.54
39449;BME280;25151;45.566;9.382;2022-09-09T05:25:27;99338.19;;;28.05;56.07
39449;BME280;25151;45.566;9.382;2022-09-09T05:28:28;99340.72;;;28.03;55.81
39449;BME280;25151;45.566;9.382;2022-09-09T05:31:30;99347.97;;;28.04;56.02
39449;BME280;25151;45.566;9.382;2022-09-09T05:34:30;99343.31;;;28.01;55.56
39449;BME280;25151;45.566;9.382;2022-09-09T05:37:31;99353.38;;;28.02;56.07
39449;BME280;25151;45.566;9.382;2022-09-09T05:40:32;99346.66;;;27.99;55.51
39449;BME280;25151;45.566;9.382;2022-09-09T05:43:33;99359.31;;;28.04;55.56
39449;BME280;25151;45.566;9.382;2022-09-09T05:46:36;99366.00;;;28.01;55.46
39449;BME280;25151;45.566;9.382;2022-09-09T05:49:36;99363.41;;;28.03;55.89
39449;BME280;25151;45.566;9.382;2022-09-09T05:52:37;99364.97;;;28.04;55.61
39449;BME280;25151;45.566;9.382;2022-09-09T05:55:37;99370.66;;;28.04;55.64
39449;BME280;25151;45.566;9.382;2022-09-09T05:58:38;99364.44;;;28.00;56.11
39449;BME280;25151;45.566;9.382;2022-09-09T06:01:39;99373.19;;;28.02;55.71
39449;BME280;25151;45.566;9.382;2022-09-09T06:04:45;99371.13;;;28.02;55.63
39449;BME280;25151;45.566;9.382;2022-09-09T06:07:45;99371.91;;;28.03;55.61
39449;BME280;25151;45.566;9.382;2022-09-09T06:10:46;99363.16;;;28.01;55.49
39449;BME280;25151;45.566;9.382;2022-09-09T06:13:48;99375.00;;;27.99;55.69
39449;BME280;25151;45.566;9.382;2022-09-09T06:16:51;99371.13;;;27.97;55.83
39449;BME280;25151;45.566;9.382;2022-09-09T06:19:52;99377.81;;;27.99;55.49
39449;BME280;25151;45.566;9.382;2022-09-09T06:22:52;99366.00;;;28.01;55.59
39449;BME280;25151;45.566;9.382;2022-09-09T06:26:08;99363.41;;;28.03;55.85
39449;BME280;25151;45.566;9.382;2022-09-09T06:29:09;99359.03;;;28.02;55.81
39449;BME280;25151;45.566;9.382;2022-09-09T06:32:10;99357.75;;;28.03;55.53
39449;BME280;25151;45.566;9.382;2022-09-09T06:35:10;99351.81;;;28.01;55.88
39449;BME280;25151;45.566;9.382;2022-09-09T06:38:11;99354.91;;;28.03;55.99
39449;BME280;25151;45.566;9.382;2022-09-09T06:41:14;99355.94;;;28.00;55.85
39449;BME280;25151;45.566;9.382;2022-09-09T06:44:15;99355.94;;;28.00;55.29
39449;BME280;25151;45.566;9.382;2022-09-09T06:47:17;99359.03;;;27.96;54.33
39449;BME280;25151;45.566;9.382;2022-09-09T06:50:17;99359.53;;;27.94;53.79
39449;BME280;25151;45.566;9.382;2022-09-09T06:53:18;99362.13;;;27.92;53.13
39449;BME280;25151;45.566;9.382;2022-09-09T06:56:27;99364.94;;;27.92;53.07
39449;BME280;25151;45.566;9.382;2022-09-09T06:59:28;99364.94;;;27.92;52.94
39449;BME280;25151;45.566;9.382;2022-09-09T07:02:31;99378.09;;;27.96;52.65
39449;BME280;25151;45.566;9.382;2022-09-09T07:05:31;99368.78;;;27.95;52.46
39449;BME280;25151;45.566;9.382;2022-09-09T07:08:32;99374.50;;;28.01;52.97
39449;BME280;25151;45.566;9.382;2022-09-09T07:11:37;99378.88;;;28.02;53.08
39449;BME280;25151;45.566;9.382;2022-09-09T07:14:38;99388.41;;;28.04;53.23
39449;BME280;25151;45.566;9.382;2022-09-09T07:17:40;99381.47;;;28.00;53.67
39449;BME280;25151;45.566;9.382;2022-09-09T07:20:41;99386.34;;;28.05;53.54
39449;BME280;25151;45.566;9.382;2022-09-09T07:23:42;99371.66;;;28.01;53.72
39449;BME280;25151;45.566;9.382;2022-09-09T07:26:43;99389.19;;;28.05;53.57
39449;BME280;25151;45.566;9.382;2022-09-09T07:29:44;99384.53;;;28.02;53.70
39449;BME280;25151;45.566;9.382;2022-09-09T07:32:45;99370.38;;;28.02;53.73
39449;BME280;25151;45.566;9.382;2022-09-09T07:35:46;99371.66;;;28.06;53.33
39449;BME280;25151;45.566;9.382;2022-09-09T07:38:48;99373.47;;;28.04;53.55
39449;BME280;25151;45.566;9.382;2022-09-09T07:41:50;99384.53;;;28.07;53.57
39449;BME280;25151;45.566;9.382;2022-09-09T07:44:52;99391.50;;;28.06;53.65
39449;BME280;25151;45.566;9.382;2022-09-09T07:47:55;99392.28;;;28.07;53.81
39449;BME280;25151;45.566;9.382;2022-09-09T07:51:11;99388.16;;;28.08;53.64
39449;BME280;25151;45.566;9.382;2022-09-09T07:54:15;99396.91;;;28.10;53.92
39449;BME280;25151;45.566;9.382;2022-09-09T07:57:17;99398.22;;;28.09;53.75
39449;BME280;25151;45.566;9.382;2022-09-09T08:00:18;99399.50;;;28.08;53.94
39449;BME280;25151;45.566;9.382;2022-09-09T08:03:20;99395.38;;;28.09;54.23
39449;BME280;25151;45.566;9.382;2022-09-09T08:06:22;99398.72;;;28.07;53.85
39449;BME280;25151;45.566;9.382;2022-09-09T08:09:24;99411.63;;;28.08;54.28
39449;BME280;25151;45.566;9.382;2022-09-09T08:12:28;99413.16;;;28.09;54.04
39449;BME280;25151;45.566;9.382;2022-09-09T08:15:28;99415.47;;;28.11;53.85
39449;BME280;25151;45.566;9.382;2022-09-09T08:18:30;99417.03;;;28.12;54.17
39449;BME280;25151;45.566;9.382;2022-09-09T08:21:32;99418.06;;;28.09;53.78
39449;BME280;25151;45.566;9.382;2022-09-09T08:24:33;99414.19;;;28.12;54.43
39449;BME280;25151;45.566;9.382;2022-09-09T08:27:34;99407.25;;;28.13;54.31
39449;BME280;25151;45.566;9.382;2022-09-09T08:30:36;99405.69;;;28.12;53.93
39449;BME280;25151;45.566;9.382;2022-09-09T08:33:37;99399.50;;;28.08;54.20
39449;BME280;25151;45.566;9.382;2022-09-09T08:36:43;99409.78;;;28.11;54.35
39449;BME280;25151;45.566;9.382;2022-09-09T08:39:43;99417.28;;;28.14;54.24
39449;BME280;25151;45.566;9.382;2022-09-09T08:42:50;99408.25;;;28.10;54.02
39449;BME280;25151;45.566;9.382;2022-09-09T08:49:50;99414.72;;;28.16;54.05
39449;BME280;25151;45.566;9.382;2022-09-09T08:56:12;99415.75;;;28.13;53.97
39449;BME280;25151;45.566;9.382;2022-09-09T08:59:17;99410.59;;;28.11;53.96
39449;BME280;25151;45.566;9.382;2022-09-09T09:05:36;99404.66;;;28.15;54.52
39449;BME280;25151;45.566;9.382;2022-09-09T09:11:53;99405.97;;;28.19;54.47
39449;BME280;25151;45.566;9.382;2022-09-09T09:15:20;99412.66;;;28.22;54.38
39449;BME280;25151;45.566;9.382;2022-09-09T09:18:21;99416.00;;;28.21;54.34
39449;BME280;25151;45.566;9.382;2022-09-09T09:28:15;99418.59;;;28.24;54.19
39449;BME280;25151;45.566;9.382;2022-09-09T09:31:19;99413.44;;;28.23;54.54
39449;BME280;25151;45.566;9.382;2022-09-09T09:34:20;99404.94;;;28.23;54.68
39449;BME280;25151;45.566;9.382;2022-09-09T09:37:32;99402.38;;;28.25;54.34
39449;BME280;25151;45.566;9.382;2022-09-09T09:40:35;99407.25;;;28.24;54.26
39449;BME280;25151;45.566;9.382;2022-09-09T09:43:39;99411.63;;;28.25;54.25
39449;BME280;25151;45.566;9.382;2022-09-09T09:46:43;99417.31;;;28.25;54.61
39449;BME280;25151;45.566;9.382;2022-09-09T09:49:58;99411.13;;;28.27;54.29
39449;BME280;25151;45.566;9.382;2022-09-09T09:53:04;99406.75;;;28.26;54.51
39449;BME280;25151;45.566;9.382;2022-09-09T09:56:07;99416.00;;;28.26;54.33
39449;BME280;25151;45.566;9.382;2022-09-09T09:59:32;99413.47;;;28.28;54.02
39449;BME280;25151;45.566;9.382;2022-09-09T10:02:39;99406.25;;;28.27;54.03
39449;BME280;25151;45.566;9.382;2022-09-09T10:05:45;99407.78;;;28.28;54.25
39449;BME280;25151;45.566;9.382;2022-09-09T10:08:46;99404.69;;;28.26;53.84
39449;BME280;25151;45.566;9.382;2022-09-09T10:11:57;99396.44;;;28.28;53.74
39449;BME280;25151;45.566;9.382;2022-09-09T10:28:43;99396.69;;;28.30;53.64
39449;BME280;25151;45.566;9.382;2022-09-09T10:51:28;99368.13;;;28.39;54.13
39449;BME280;25151;45.566;9.382;2022-09-09T10:57:51;99367.88;;;28.37;54.53
39449;BME280;25151;45.566;9.382;2022-09-09T11:00:56;99361.66;;;28.39;54.42
39449;BME280;25151;45.566;9.382;2022-09-09T11:07:13;99358.34;;;28.40;54.48
39449;BME280;25151;45.566;9.382;2022-09-09T11:10:26;99352.66;;;28.40;54.01
39449;BME280;25151;45.566;9.382;2022-09-09T11:14:02;99349.81;;;28.40;54.47
39449;BME280;25151;45.566;9.382;2022-09-09T11:17:10;99341.31;;;28.40;54.49
39449;BME280;25151;45.566;9.382;2022-09-09T11:20:13;99345.69;;;28.41;54.15
39449;BME280;25151;45.566;9.382;2022-09-09T11:23:18;99338.72;;;28.42;54.05
39449;BME280;25151;45.566;9.382;2022-09-09T11:26:33;99327.38;;;28.42;54.60
39449;BME280;25151;45.566;9.382;2022-09-09T11:30:04;99342.06;;;28.47;54.34
39449;BME280;25151;45.566;9.382;2022-09-09T11:33:31;99334.38;;;28.47;54.12
39449;BME280;25151;45.566;9.382;2022-09-09T11:40:18;99330.22;;;28.48;54.59
39449;BME280;25151;45.566;9.382;2022-09-09T11:43:27;99329.47;;;28.48;54.22
39449;BME280;25151;45.566;9.382;2022-09-09T11:46:36;99331.50;;;28.53;54.74
39449;BME280;25151;45.566;9.382;2022-09-09T11:52:41;99334.88;;;28.51;54.97
39449;BME280;25151;45.566;9.382;2022-09-09T11:56:01;99327.38;;;28.54;54.98
39449;BME280;25151;45.566;9.382;2022-09-09T11:59:06;99323.00;;;28.53;54.65
39449;BME280;25151;45.566;9.382;2022-09-09T12:02:27;99331.75;;;28.55;54.53
39449;BME280;25151;45.566;9.382;2022-09-09T12:05:46;99325.06;;;28.52;54.89
39449;BME280;25151;45.566;9.382;2022-09-09T12:08:51;99323.00;;;28.53;54.63
39449;BME280;25151;45.566;9.382;2022-09-09T12:12:05;99311.16;;;28.49;54.30
39449;BME280;25151;45.566;9.382;2022-09-09T12:18:14;99313.19;;;28.54;54.76
39449;BME280;25151;45.566;9.382;2022-09-09T12:21:35;99307.53;;;28.54;54.44
39449;BME280;25151;45.566;9.382;2022-09-09T12:28:00;99309.59;;;28.53;54.39
39449;BME280;25151;45.566;9.382;2022-09-09T12:38:02;99294.88;;;28.55;54.41
39449;BME280;25151;45.566;9.382;2022-09-09T12:41:03;99287.16;;;28.55;54.43
39449;BME280;25151;45.566;9.382;2022-09-09T12:44:05;99294.38;;;28.56;54.49
39449;BME280;25151;45.566;9.382;2022-09-09T12:47:06;99287.16;;;28.55;54.94
39449;BME280;25151;45.566;9.382;2022-09-09T12:50:19;99291.00;;;28.58;54.90
39449;BME280;25151;45.566;9.382;2022-09-09T12:53:35;99284.06;;;28.59;54.76
39449;BME280;25151;45.566;9.382;2022-09-09T12:56:36;99276.84;;;28.58;54.87
39449;BME280;25151;45.566;9.382;2022-09-09T12:59:39;99272.47;;;28.57;55.03
39449;BME280;25151;45.566;9.382;2022-09-09T13:03:17;99271.16;;;28.58;54.50
39449;BME280;25151;45.566;9.382;2022-09-09T13:06:22;99275.56;;;28.59;54.59
39449;BME280;25151;45.566;9.382;2022-09-09T13:09:23;99265.50;;;28.58;54.39
39449;BME280;25151;45.566;9.382;2022-09-09T13:12:24;99264.22;;;28.59;54.58
39449;BME280;25151;45.566;9.382;2022-09-09T13:15:28;99261.13;;;28.57;54.41
39449;BME280;25151;45.566;9.382;2022-09-09T13:18:31;99255.72;;;28.59;54.33
39449;BME280;25151;45.566;9.382;2022-09-09T13:21:38;99247.44;;;28.61;54.75
39449;BME280;25151;45.566;9.382;2022-09-09T13:24:39;99249.25;;;28.58;54.75
39449;BME280;25151;45.566;9.382;2022-09-09T13:27:41;99235.59;;;28.57;54.98
39449;BME280;25151;45.566;9.382;2022-09-09T13:30:42;99239.97;;;28.58;54.88
39449;BME280;25151;45.566;9.382;2022-09-09T13:33:53;99236.09;;;28.61;54.37
39449;BME280;25151;45.566;9.382;2022-09-09T13:36:59;99241.53;;;28.59;54.84
39449;BME280;25151;45.566;9.382;2022-09-09T13:40:06;99240.22;;;28.60;54.60
39449;BME280;25151;45.566;9.382;2022-09-09T13:43:15;99227.06;;;28.57;54.76
39449;BME280;25151;45.566;9.382;2022-09-09T13:46:35;99222.44;;;28.59;54.31
39449;BME280;25151;45.566;9.382;2022-09-09T13:49:36;99216.00;;;28.59;54.60
39449;BME280;25151;45.566;9.382;2022-09-09T13:52:37;99213.44;;;28.55;54.60
39449;BME280;25151;45.566;9.382;2022-09-09T13:55:39;99228.88;;;28.60;54.42
39449;BME280;25151;45.566;9.382;2022-09-09T13:58:39;99217.81;;;28.56;54.49
39449;BME280;25151;45.566;9.382;2022-09-09T14:01:41;99228.88;;;28.60;54.41
39449;BME280;25151;45.566;9.382;2022-09-09T14:04:42;99214.44;;;28.58;54.27
39449;BME280;25151;45.566;9.382;2022-09-09T14:07:44;99213.16;;;28.59;54.59
39449;BME280;25151;45.566;9.382;2022-09-09T14:10:44;99217.53;;;28.60;54.82
39449;BME280;25151;45.566;9.382;2022-09-09T14:13:45;99213.16;;;28.59;54.57
39449;BME280;25151;45.566;9.382;2022-09-09T14:16:46;99211.88;;;28.60;54.38
39449;BME280;25151;45.566;9.382;2022-09-09T14:19:47;99216.00;;;28.59;54.71
39449;BME280;25151;45.566;9.382;2022-09-09T14:22:48;99207.72;;;28.61;54.68
39449;BME280;25151;45.566;9.382;2022-09-09T14:25:52;99210.03;;;28.62;54.62
39449;BME280;25151;45.566;9.382;2022-09-09T14:28:55;99207.72;;;28.61;54.67
39449;BME280;25151;45.566;9.382;2022-09-09T14:31:56;99209.78;;;28.60;54.72
39449;BME280;25151;45.566;9.382;2022-09-09T14:34:57;99211.88;;;28.60;54.74
39449;BME280;25151;45.566;9.382;2022-09-09T14:37:57;99204.13;;;28.60;54.62
39449;BME280;25151;45.566;9.382;2022-09-09T14:40:58;99198.44;;;28.60;54.72
39449;BME280;25151;45.566;9.382;2022-09-09T14:43:58;99199.75;;;28.59;54.99
39449;BME280;25151;45.566;9.382;2022-09-09T14:47:01;99194.84;;;28.60;54.50
39449;BME280;25151;45.566;9.382;2022-09-09T14:50:02;99207.50;;;28.59;54.45
39449;BME280;25151;45.566;9.382;2022-09-09T14:53:06;99203.59;;;28.62;54.49
39449;BME280;25151;45.566;9.382;2022-09-09T14:56:13;99196.38;;;28.61;54.52
39449;BME280;25151;45.566;9.382;2022-09-09T14:59:13;99204.13;;;28.60;54.91
39449;BME280;25151;45.566;9.382;2022-09-09T15:02:14;99195.63;;;28.60;54.91
39449;BME280;25151;45.566;9.382;2022-09-09T15:05:17;99201.28;;;28.60;54.53
39449;BME280;25151;45.566;9.382;2022-09-09T15:08:18;99197.69;;;28.60;55.00
39449;BME280;25151;45.566;9.382;2022-09-09T15:11:20;99196.38;;;28.61;54.92
39449;BME280;25151;45.566;9.382;2022-09-09T15:14:24;99193.00;;;28.62;54.98
39449;BME280;25151;45.566;9.382;2022-09-09T15:17:26;99193.81;;;28.63;55.14
39449;BME280;25151;45.566;9.382;2022-09-09T15:20:27;99197.41;;;28.63;55.29
39449;BME280;25151;45.566;9.382;2022-09-09T15:23:27;99191.22;;;28.65;54.88
39449;BME280;25151;45.566;9.382;2022-09-09T15:26:28;99187.06;;;28.66;54.75
39449;BME280;25151;45.566;9.382;2022-09-09T15:29:30;99184.00;;;28.64;55.37
39449;BME280;25151;45.566;9.382;2022-09-09T15:32:30;99182.47;;;28.63;55.11
39449;BME280;25151;45.566;9.382;2022-09-09T15:35:34;99179.88;;;28.65;55.07
39449;BME280;25151;45.566;9.382;2022-09-09T15:38:34;99174.19;;;28.65;55.20
39449;BME280;25151;45.566;9.382;2022-09-09T15:41:35;99168.53;;;28.65;55.13
39449;BME280;25151;45.566;9.382;2022-09-09T15:44:42;99171.63;;;28.67;55.27
39449;BME280;25151;45.566;9.382;2022-09-09T15:47:42;99162.59;;;28.63;55.73
39449;BME280;25151;45.566;9.382;2022-09-09T15:50:43;99161.53;;;28.66;55.79
39449;BME280;25151;45.566;9.382;2022-09-09T15:53:44;99165.69;;;28.65;55.71
39449;BME280;25151;45.566;9.382;2022-09-09T15:56:47;99165.94;;;28.67;55.89
39449;BME280;25151;45.566;9.382;2022-09-09T15:59:50;99154.34;;;28.65;55.50
39449;BME280;25151;45.566;9.382;2022-09-09T16:02:50;99160.28;;;28.67;55.67
39449;BME280;25151;45.566;9.382;2022-09-09T16:05:52;99165.16;;;28.66;55.37
39449;BME280;25151;45.566;9.382;2022-09-09T16:08:54;99160.78;;;28.65;55.58
39449;BME280;25151;45.566;9.382;2022-09-09T16:11:56;99157.44;;;28.67;55.98
39449;BME280;25151;45.566;9.382;2022-09-09T16:14:58;99155.88;;;28.66;55.65
39449;BME280;25151;45.566;9.382;2022-09-09T16:18:00;99171.63;;;28.67;55.69
39449;BME280;25151;45.566;9.382;2022-09-09T16:21:00;99164.16;;;28.64;55.71
39449;BME280;25151;45.566;9.382;2022-09-09T16:24:03;99166.72;;;28.62;55.59
39449;BME280;25151;45.566;9.382;2022-09-09T16:27:04;99160.81;;;28.60;55.44
39449;BME280;25151;45.566;9.382;2022-09-09T16:30:05;99152.03;;;28.58;55.79
39449;BME280;25151;45.566;9.382;2022-09-09T16:33:06;99155.13;;;28.60;55.29
39449;BME280;25151;45.566;9.382;2022-09-09T16:36:09;99162.34;;;28.61;55.31
39449;BME280;25151;45.566;9.382;2022-09-09T16:39:12;99172.16;;;28.60;55.32
39449;BME280;25151;45.566;9.382;2022-09-09T16:42:13;99165.72;;;28.59;55.35
39449;BME280;25151;45.566;9.382;2022-09-09T16:45:14;99171.88;;;28.58;55.19
39449;BME280;25151;45.566;9.382;2022-09-09T16:48:14;99169.81;;;28.58;55.10
39449;BME280;25151;45.566;9.382;2022-09-09T16:51:27;99178.34;;;28.58;55.55
39449;BME280;25151;45.566;9.382;2022-09-09T16:54:28;99174.50;;;28.56;55.57
39449;BME280;25151;45.566;9.382;2022-09-09T16:57:29;99181.69;;;28.57;55.52
39449;BME280;25151;45.566;9.382;2022-09-09T17:00:30;99178.88;;;28.57;55.57
39449;BME280;25151;45.566;9.382;2022-09-09T17:03:31;99184.81;;;28.59;55.31
39449;BME280;25151;45.566;9.382;2022-09-09T17:06:33;99173.72;;;28.55;55.43
39449;BME280;25151;45.566;9.382;2022-09-09T17:09:40;99176.56;;;28.55;55.60
39449;BME280;25151;45.566;9.382;2022-09-09T17:12:41;99171.13;;;28.57;55.71
39449;BME280;25151;45.566;9.382;2022-09-09T17:15:42;99182.47;;;28.57;55.85
39449;BME280;25151;45.566;9.382;2022-09-09T17:18:43;99178.09;;;28.56;55.33
39449;BME280;25151;45.566;9.382;2022-09-09T17:21:46;99175.75;;;28.55;55.54
39449;BME280;25151;45.566;9.382;2022-09-09T17:24:49;99180.16;;;28.56;55.77
39449;BME280;25151;45.566;9.382;2022-09-09T17:27:50;99177.31;;;28.56;55.21
39449;BME280;25151;45.566;9.382;2022-09-09T17:30:52;99184.53;;;28.57;55.29
39449;BME280;25151;45.566;9.382;2022-09-09T17:33:52;99190.50;;;28.48;55.82
39449;BME280;25151;45.566;9.382;2022-09-09T17:36:53;99177.34;;;28.33;54.97
39449;BME280;25151;45.566;9.382;2022-09-09T17:39:54;99184.84;;;28.14;54.07
39449;BME280;25151;45.566;9.382;2022-09-09T17:42:55;99190.03;;;28.10;53.49
39449;BME280;25151;45.566;9.382;2022-09-09T17:46:05;99186.94;;;28.08;53.03
39449;BME280;25151;45.566;9.382;2022-09-09T17:49:09;99184.34;;;28.10;52.80
39449;BME280;25151;45.566;9.382;2022-09-09T17:52:09;99187.19;;;28.10;52.28
39449;BME280;25151;45.566;9.382;2022-09-09T17:55:10;99188.72;;;28.11;52.20
39449;BME280;25151;45.566;9.382;2022-09-09T17:58:12;99189.78;;;28.08;51.88
39449;BME280;25151;45.566;9.382;2022-09-09T18:01:22;99191.56;;;28.05;51.81
39449;BME280;25151;45.566;9.382;2022-09-09T18:04:23;99196.22;;;28.08;51.48
39449;BME280;25151;45.566;9.382;2022-09-09T18:07:24;99196.97;;;28.09;51.49
39449;BME280;25151;45.566;9.382;2022-09-09T18:10:25;99190.81;;;28.05;51.47